Time;durP1;ratioP1;P1;durP2;ratioP2;P2;SDS_P1;SDS_P2;PMS_P1;PMS_P2;Temp;Humidity;BMP_temperature;BMP_pressure;BME280_temperature;BME280_humidity;BME280_pressure;Samples;Min_cycle;Max_cycle;Signal;HPM_P1;HPM_P2
2022/01/14 00:05:58;;;;;;;22.85;13.75;;;;;;;5.05;84.47;103319.09;5011833;28;20041;-83
2022/01/14 00:13:09;;;;;;;27.25;14.70;;;;;;;5.06;84.09;103324.31;5004002;28;20202;-81
2022/01/14 00:15:52;;;;;;;28.33;14.70;;;;;;;5.05;84.17;103328.16;5011516;28;20041;-81
2022/01/14 00:18:19;;;;;;;23.27;13.65;;;;;;;5.03;84.16;103319.31;5008281;28;20473;-81
2022/01/14 00:20:45;;;;;;;21.23;13.15;;;;;;;5.04;84.36;103331.97;5009861;28;20497;-81
2022/01/14 00:23:12;;;;;;;25.98;15.00;;;;;;;5.05;84.16;103327.31;5010829;28;20029;-82
2022/01/14 00:34:07;;;;;;;22.17;10.88;;;;;;;5.04;84.46;103326.47;5008695;28;20089;-81
2022/01/14 00:40:25;;;;;;;22.30;12.27;;;;;;;5.04;84.60;103318.25;4993544;28;20447;-81
2022/01/14 00:43:15;;;;;;;24.10;12.90;;;;;;;5.06;84.61;103310.59;4994030;28;20054;-80
2022/01/14 00:50:05;;;;;;;17.40;11.68;;;;;;;5.06;84.30;103309.75;5011088;28;20502;-81
2022/01/14 00:52:54;;;;;;;22.70;11.25;;;;;;;5.05;84.68;103317.19;5003991;28;20430;-81
2022/01/14 00:55:52;;;;;;;23.73;12.13;;;;;;;5.08;84.37;103326.84;4997952;28;20474;-81
2022/01/14 01:02:50;;;;;;;20.55;11.75;;;;;;;5.12;84.79;103322.50;5007616;28;20501;-81
2022/01/14 01:09:50;;;;;;;18.73;10.77;;;;;;;5.11;84.49;103320.84;4999514;28;20035;-82
2022/01/14 01:16:49;;;;;;;18.17;12.32;;;;;;;5.09;84.77;103301.88;5009076;28;20148;-81
2022/01/14 01:19:36;;;;;;;16.33;10.80;;;;;;;5.12;84.42;103290.41;5010968;28;20136;-81
2022/01/14 01:22:25;;;;;;;23.88;11.45;;;;;;;5.13;84.92;103291.22;5015431;28;20389;-81
2022/01/14 01:36:21;;;;;;;16.25;9.52;;;;;;;5.08;84.84;103266.44;4997361;28;20117;-81
2022/01/14 01:43:24;;;;;;;17.85;10.38;;;;;;;5.11;85.05;103249.47;5013646;28;20041;-81
2022/01/14 01:50:39;;;;;;;15.45;9.52;;;;;;;5.11;84.57;103246.72;4996926;28;20042;-81
2022/01/14 01:56:49;;;;;;;16.20;9.85;;;;;;;5.12;84.93;103235.47;5015250;28;20133;-81
2022/01/14 02:02:59;;;;;;;21.88;11.50;;;;;;;5.13;85.20;103233.56;5016602;28;20029;-81
2022/01/14 02:05:26;;;;;;;18.50;10.10;;;;;;;5.13;84.80;103217.94;5013755;28;20096;-80
2022/01/14 02:07:53;;;;;;;17.92;11.05;;;;;;;5.12;85.13;103224.50;4999309;28;20108;-81
2022/01/14 02:24:58;;;;;;;19.92;10.68;;;;;;;5.11;85.29;103222.00;5012848;28;20505;-81
2022/01/14 02:27:45;;;;;;;15.75;9.27;;;;;;;5.11;85.16;103225.56;5014304;28;20092;-81
2022/01/14 02:30:12;;;;;;;17.40;9.13;;;;;;;5.11;84.90;103225.56;5006660;28;20477;-81
2022/01/14 02:32:39;;;;;;;21.90;11.25;;;;;;;5.14;85.04;103224.22;5006024;28;20493;-81
2022/01/14 02:38:57;;;;;;;20.50;10.90;;;;;;;5.14;85.02;103227.81;5011412;28;20057;-81
2022/01/14 02:41:47;;;;;;;20.08;11.15;;;;;;;5.13;85.05;103226.16;5011494;28;20545;-81
2022/01/14 02:48:45;;;;;;;14.48;10.30;;;;;;;5.16;85.32;103209.19;5007620;28;20500;-81
2022/01/14 02:51:33;;;;;;;15.05;9.60;;;;;;;5.16;85.21;103205.63;5012469;28;20048;-81
2022/01/14 02:54:23;;;;;;;14.80;9.43;;;;;;;5.16;85.11;103211.94;5012336;28;20131;-81
2022/01/14 02:57:13;;;;;;;14.23;7.90;;;;;;;5.18;85.21;103217.19;5025369;28;20458;-81
2022/01/14 03:00:01;;;;;;;12.52;7.97;;;;;;;5.16;84.87;103203.72;5012701;28;20049;-81
2022/01/14 03:02:50;;;;;;;13.88;7.90;;;;;;;5.17;84.82;103194.38;5006016;28;20073;-81
2022/01/14 03:05:37;;;;;;;10.85;7.40;;;;;;;5.18;85.21;103195.22;5011788;28;20041;-81
2022/01/14 03:12:37;;;;;;;13.40;8.70;;;;;;;5.16;84.57;103186.41;5002616;28;20045;-81
2022/01/14 03:15:25;;;;;;;17.58;7.60;;;;;;;5.16;84.51;103198.22;5010318;28;20038;-81
2022/01/14 03:18:17;;;;;;;14.35;7.05;;;;;;;5.16;84.54;103187.22;4998046;28;20046;-81
2022/01/14 03:21:12;;;;;;;13.48;7.45;;;;;;;5.17;84.43;103169.66;5013333;28;20144;-81
2022/01/14 03:27:09;;;;;;;12.27;6.72;;;;;;;5.19;84.22;103177.66;5002571;28;20058;-81
2022/01/14 03:29:36;;;;;;;12.20;7.40;;;;;;;5.22;84.26;103175.22;5005788;28;20042;-81
2022/01/14 03:32:04;;;;;;;12.70;7.00;;;;;;;5.22;84.10;103169.72;5011777;28;20394;-81
2022/01/14 03:34:31;;;;;;;12.80;7.45;;;;;;;5.24;84.29;103162.06;5007856;28;20034;-81
2022/01/14 03:36:59;;;;;;;9.82;7.38;;;;;;;5.25;84.42;103158.25;5013167;28;20048;-81
2022/01/14 03:39:29;;;;;;;14.85;7.13;;;;;;;5.26;84.18;103157.19;5011656;28;20065;-81
2022/01/14 03:41:56;;;;;;;13.20;7.35;;;;;;;5.26;84.51;103151.69;4999941;28;20042;-81
2022/01/14 03:44:23;;;;;;;12.80;7.68;;;;;;;5.28;84.22;103152.25;4995090;28;20673;-81
2022/01/14 03:46:52;;;;;;;10.63;7.55;;;;;;;5.26;84.37;103146.19;4996720;28;20607;-81
2022/01/14 03:49:40;;;;;;;15.02;7.68;;;;;;;5.25;84.39;103146.44;4995393;28;20050;-81
2022/01/14 03:52:27;;;;;;;14.02;7.90;;;;;;;5.26;84.50;103140.72;5006687;28;20041;-81
2022/01/14 03:55:15;;;;;;;18.23;8.52;;;;;;;5.27;84.37;103138.78;4995711;28;20112;-81
2022/01/14 03:58:07;;;;;;;15.75;7.55;;;;;;;5.27;84.63;103152.53;5007373;28;20042;-81
2022/01/14 04:00:54;;;;;;;11.30;8.30;;;;;;;5.23;84.58;103138.47;5011104;28;20054;-81
2022/01/14 04:03:43;;;;;;;14.25;8.40;;;;;;;5.22;84.65;103134.03;5001290;28;20148;-81
2022/01/14 04:06:31;;;;;;;17.25;8.85;;;;;;;5.22;84.58;103141.44;4998865;28;20136;-81
2022/01/14 04:09:18;;;;;;;13.38;9.10;;;;;;;5.20;84.42;103138.94;5010544;28;20042;-81
2022/01/14 04:12:08;;;;;;;16.80;9.07;;;;;;;5.20;84.14;103133.47;4996231;28;20156;-81
2022/01/14 04:17:42;;;;;;;12.25;8.25;;;;;;;5.18;84.27;103138.38;5000926;28;20140;-81
2022/01/14 04:20:30;;;;;;;16.05;8.13;;;;;;;5.21;84.16;103132.38;5004636;28;20058;-81
2022/01/14 04:23:20;;;;;;;11.05;8.13;;;;;;;5.23;84.07;103132.97;4994761;28;20042;-80
2022/01/14 04:26:07;;;;;;;12.15;7.88;;;;;;;5.22;83.93;103139.53;5000146;28;20041;-81
2022/01/14 04:28:54;;;;;;;14.70;8.57;;;;;;;5.23;84.16;103123.88;4995148;28;20046;-81
2022/01/14 04:31:34;;;;;;;14.48;8.82;;;;;;;5.23;84.24;103119.22;5009804;28;20034;-81
2022/01/14 04:34:04;;;;;;;13.38;9.38;;;;;;;5.23;84.07;103112.91;4999215;28;20045;-81
2022/01/14 04:36:31;;;;;;;13.20;8.85;;;;;;;5.21;83.98;103121.41;5003328;28;20030;-81
2022/01/14 04:38:58;;;;;;;15.13;10.48;;;;;;;5.21;83.63;103102.19;5006045;28;20128;-81
2022/01/14 04:41:25;;;;;;;15.57;10.60;;;;;;;5.20;84.14;103111.50;4996130;28;20049;-81
2022/01/14 04:47:45;;;;;;;15.88;9.95;;;;;;;5.21;83.73;103106.84;4994599;28;20046;-81
2022/01/14 04:53:52;;;;;;;13.68;9.50;;;;;;;5.21;83.77;103117.81;5006093;28;20030;-81
2022/01/14 04:56:19;;;;;;;20.00;9.30;;;;;;;5.22;83.80;103108.47;5012017;28;20175;-81
2022/01/14 05:02:37;;;;;;;16.83;10.02;;;;;;;5.20;84.07;103096.94;5002748;28;20033;-81
2022/01/14 05:08:55;;;;;;;11.90;9.10;;;;;;;5.20;83.66;103088.69;5007792;28;20536;-81
2022/01/14 05:15:15;;;;;;;16.98;9.65;;;;;;;5.19;83.86;103068.63;5005005;28;20473;-81
2022/01/14 05:21:32;;;;;;;15.13;8.85;;;;;;;5.18;83.43;103061.50;5007039;28;20543;-81
2022/01/14 05:27:42;;;;;;;16.65;9.30;;;;;;;5.16;83.51;103060.09;5012039;28;20104;-80
2022/01/14 05:30:29;;;;;;;12.52;9.75;;;;;;;5.15;83.64;103058.41;5008448;28;20123;-80
2022/01/14 05:33:16;;;;;;;16.90;9.25;;;;;;;5.13;83.36;103055.09;5015254;28;20045;-81
2022/01/14 05:40:06;;;;;;;14.57;9.23;;;;;;;5.09;83.53;103054.75;5014115;28;20042;-81
2022/01/14 05:47:14;;;;;;;13.80;10.35;;;;;;;5.04;83.62;103040.97;5013205;28;20042;-81
2022/01/14 05:49:41;;;;;;;15.90;9.45;;;;;;;5.03;83.98;103033.78;5027755;28;20099;-81
2022/01/14 05:56:18;;;;;;;16.05;9.35;;;;;;;4.96;83.67;103038.63;5016498;28;20038;-81
2022/01/14 06:03:17;;;;;;;16.60;9.60;;;;;;;4.89;83.92;103038.84;5016339;28;20389;-80
2022/01/14 06:10:06;;;;;;;17.67;10.23;;;;;;;4.77;83.79;103029.00;5016161;28;20107;-81
2022/01/14 06:16:54;;;;;;;18.08;10.27;;;;;;;4.73;83.97;103038.84;5016285;28;20026;-81
2022/01/14 06:24:07;;;;;;;17.40;10.27;;;;;;;4.79;84.53;103037.84;5016197;28;20033;-80
2022/01/14 06:26:54;;;;;;;16.52;10.60;;;;;;;4.79;84.13;103044.13;5015154;28;20137;-80
2022/01/14 06:33:52;;;;;;;14.95;10.35;;;;;;;4.81;84.47;103052.97;4998996;28;20458;-80
2022/01/14 06:36:39;;;;;;;20.70;11.88;;;;;;;4.83;84.39;103052.72;5014973;28;20052;-81
2022/01/14 06:39:26;;;;;;;20.25;11.90;;;;;;;4.85;84.74;103053.28;5011280;28;20037;-81
2022/01/14 06:42:40;;;;;;;24.40;12.75;;;;;;;4.86;84.91;103050.31;5014064;28;20125;-81
2022/01/14 06:49:29;;;;;;;23.55;11.38;;;;;;;4.89;84.89;103054.47;5007989;28;20478;-80
2022/01/14 06:56:17;;;;;;;16.40;10.02;;;;;;;4.88;84.56;103056.38;4995750;28;20042;-80
2022/01/14 07:06:19;;;;;;;15.05;9.90;;;;;;;4.83;84.66;103050.81;5008569;28;19913;-81
2022/01/14 07:12:41;;;;;;;15.80;10.18;;;;;;;4.84;84.54;103054.38;4967318;28;21747;-81
2022/01/14 07:15:11;;;;;;;17.73;9.82;;;;;;;4.87;84.67;103056.63;4966596;28;20061;-81
2022/01/14 07:17:38;;;;;;;16.60;9.60;;;;;;;4.88;84.78;103047.31;4971615;28;20136;-80
2022/01/14 07:28:15;;;;;;;15.18;8.10;;;;;;;4.84;84.41;103046.16;4967625;28;21764;-80
2022/01/14 07:42:37;;;;;;;13.00;7.25;;;;;;;4.83;84.63;103055.47;4996004;28;20471;-80
2022/01/14 08:01:27;;;;;;;16.73;9.05;;;;;;;4.76;85.06;103049.31;4997271;28;20042;-81
2022/01/14 08:03:57;;;;;;;14.80;9.02;;;;;;;4.78;84.92;103058.13;4998881;28;20088;-81
2022/01/14 08:10:15;;;;;;;14.52;8.45;;;;;;;4.79;84.43;103065.28;5009449;28;20038;-81
2022/01/14 08:20:35;;;;;;;11.65;8.40;;;;;;;4.77;84.33;103078.41;5007223;28;20462;-80
2022/01/14 08:36:39;;;;;;;18.27;9.10;;;;;;;4.81;84.48;103088.66;5004966;28;20045;-80
2022/01/14 08:42:57;;;;;;;15.35;9.35;;;;;;;4.85;84.35;103089.81;4994766;28;20387;-81
2022/01/14 08:49:05;;;;;;;16.10;8.63;;;;;;;4.85;84.32;103083.47;5012232;28;20092;-82
2022/01/14 08:55:53;;;;;;;16.83;8.52;;;;;;;4.88;84.83;103074.75;5004413;28;20045;-82
2022/01/14 09:02:41;;;;;;;24.95;10.25;;;;;;;4.84;84.42;103070.84;5004017;28;20034;-82
2022/01/14 09:09:39;;;;;;;23.85;10.18;;;;;;;4.85;84.62;103067.00;5011377;28;20494;-81
2022/01/14 09:16:38;;;;;;;21.73;12.45;;;;;;;4.93;84.49;103072.91;5007025;28;20069;-82
2022/01/14 09:19:25;;;;;;;26.02;15.05;;;;;;;4.90;84.40;103067.09;5015679;28;20042;-81
2022/01/14 09:22:17;;;;;;;27.70;14.13;;;;;;;4.91;84.52;103068.75;5001136;28;20042;-82
2022/01/14 09:29:49;;;;;;;20.35;12.98;;;;;;;4.95;84.66;103063.63;5008167;28;20507;-80
2022/01/14 09:36:50;;;;;;;28.77;16.90;;;;;;;4.98;84.55;103063.13;5014277;28;20458;-81
2022/01/14 09:39:39;;;;;;;30.23;16.10;;;;;;;5.02;84.41;103064.25;5008817;28;20042;-81
2022/01/14 09:42:30;;;;;;;29.48;14.35;;;;;;;5.04;84.27;103057.44;5015837;28;20069;-83
2022/01/14 09:49:19;;;;;;;27.55;14.32;;;;;;;5.17;84.34;103061.72;5007924;28;20088;-81
2022/01/14 09:52:35;;;;;;;21.50;13.38;;;;;;;5.20;84.27;103056.56;5009733;28;20073;-81
2022/01/14 09:55:35;;;;;;;26.02;13.68;;;;;;;5.24;84.34;103052.22;5005935;28;20060;-81
2022/01/14 10:02:43;;;;;;;20.83;12.38;;;;;;;5.35;84.31;103051.28;5012258;28;20144;-81
2022/01/14 10:09:47;;;;;;;23.27;10.90;;;;;;;5.45;83.73;103029.44;5013902;28;20042;-81
2022/01/14 10:12:47;;;;;;;19.95;10.27;;;;;;;5.49;83.77;103035.25;5011462;28;20397;-81
2022/01/14 10:19:51;;;;;;;17.92;10.73;;;;;;;5.60;83.54;103025.22;4969074;28;20058;-81
2022/01/14 10:33:48;;;;;;;16.92;8.10;;;;;;;5.71;83.26;103018.75;4996302;28;20038;-77
2022/01/14 10:36:21;;;;;;;18.75;8.38;;;;;;;5.75;83.42;103023.47;5005032;28;20555;-79
2022/01/14 10:38:48;;;;;;;18.67;8.75;;;;;;;5.80;83.05;103039.22;5003742;28;20041;-76
2022/01/14 10:41:16;;;;;;;21.40;9.93;;;;;;;5.82;83.17;103034.28;4980281;28;20613;-76
2022/01/14 10:43:44;;;;;;;18.60;8.23;;;;;;;5.85;82.95;103031.88;5000318;28;20041;-76
2022/01/14 10:46:12;;;;;;;13.73;7.97;;;;;;;5.88;82.84;103020.34;5003017;28;20061;-76
2022/01/14 10:48:43;;;;;;;14.25;5.90;;;;;;;5.91;82.59;103024.50;4997084;28;20072;-76
2022/01/14 10:51:12;;;;;;;8.35;4.72;;;;;;;5.95;82.56;103021.00;4999903;28;20053;-76
2022/01/14 10:53:41;;;;;;;9.90;4.55;;;;;;;5.98;82.46;103027.91;5004473;28;20045;-77
2022/01/14 10:56:10;;;;;;;13.13;4.95;;;;;;;6.01;82.15;103021.91;4987345;28;20077;-76
2022/01/14 10:58:46;;;;;;;8.75;4.13;;;;;;;6.03;81.79;103022.47;5002954;28;20050;-77
2022/01/14 11:01:22;;;;;;;18.27;5.50;;;;;;;6.05;81.78;103015.59;4994296;28;20042;-76
2022/01/14 11:03:56;;;;;;;20.23;6.25;;;;;;;6.06;81.51;103003.50;4978210;28;20040;-77
2022/01/14 11:06:32;;;;;;;11.63;4.65;;;;;;;6.09;81.24;103011.22;5003938;28;20037;-78
2022/01/14 11:09:08;;;;;;;8.38;3.55;;;;;;;6.11;81.09;102995.31;4986778;28;20046;-77
2022/01/14 11:11:38;;;;;;;9.63;4.15;;;;;;;6.14;81.02;102999.47;5005095;28;20533;-78
2022/01/14 11:14:06;;;;;;;13.20;5.28;;;;;;;6.18;80.81;102997.00;5004797;28;20046;-78
2022/01/14 11:16:34;;;;;;;12.23;4.63;;;;;;;6.23;80.98;102981.38;4988873;28;20413;-78
2022/01/14 11:19:04;;;;;;;10.68;5.43;;;;;;;6.31;80.92;102975.41;5009212;28;20400;-78
2022/01/14 11:24:23;;;;;;;11.65;4.80;;;;;;;6.45;80.24;102976.63;5007198;28;20045;-78
2022/01/14 11:27:11;;;;;;;11.45;5.55;;;;;;;6.52;80.17;102976.38;4989479;28;20053;-78
2022/01/14 11:29:44;;;;;;;8.25;4.38;;;;;;;6.57;80.08;102968.16;4997974;28;20050;-77
2022/01/14 11:32:11;;;;;;;9.30;4.40;;;;;;;6.60;79.99;102973.97;4986823;28;20062;-78
2022/01/14 11:34:48;;;;;;;11.57;5.60;;;;;;;6.64;80.02;102968.78;4987600;28;20136;-77
2022/01/14 11:37:30;;;;;;;6.38;3.50;;;;;;;6.68;79.79;102965.25;4986379;28;20141;-76
2022/01/14 11:40:02;;;;;;;10.40;3.88;;;;;;;6.72;79.63;102963.59;4984841;28;20061;-78
2022/01/14 11:43:00;;;;;;;9.68;3.13;;;;;;;6.74;78.87;102972.44;4984732;28;20486;-78
2022/01/14 11:45:45;;;;;;;10.02;3.70;;;;;;;6.74;79.17;102964.19;4983812;28;20054;-77
2022/01/14 11:48:33;;;;;;;7.90;3.60;;;;;;;6.74;78.88;102964.19;4985106;28;20042;-78
2022/01/14 11:51:04;;;;;;;11.15;4.53;;;;;;;6.75;79.10;102954.00;4966563;28;20454;-78
2022/01/14 11:53:37;;;;;;;15.02;5.55;;;;;;;6.78;79.05;102955.41;4986815;28;20038;-78
2022/01/14 11:56:29;;;;;;;10.32;4.60;;;;;;;6.80;78.62;102950.44;4989176;28;20121;-81
2022/01/14 11:59:17;;;;;;;11.50;4.95;;;;;;;6.85;78.57;102953.22;4986541;28;20042;-80
2022/01/14 12:01:45;;;;;;;14.77;5.20;;;;;;;6.90;78.63;102956.84;4984165;28;20241;-78
2022/01/14 12:04:13;;;;;;;11.15;5.07;;;;;;;6.93;78.58;102947.22;4984688;28;20611;-78
2022/01/14 12:06:57;;;;;;;9.43;5.00;;;;;;;6.99;78.27;102951.66;4987199;28;20050;-78
2022/01/14 12:09:24;;;;;;;8.85;4.10;;;;;;;7.04;78.56;102946.19;4984145;28;20089;-78
2022/01/14 12:12:20;;;;;;;6.32;4.35;;;;;;;7.06;78.06;102941.22;4985452;28;20050;-78
2022/01/14 12:14:56;;;;;;;12.02;4.60;;;;;;;7.05;78.47;102953.31;4967681;28;20049;-77
2022/01/14 12:17:40;;;;;;;9.75;4.18;;;;;;;7.07;78.05;102951.97;4984772;28;20490;-78
2022/01/14 12:20:15;;;;;;;12.35;4.88;;;;;;;7.08;78.14;102947.28;4984503;28;20126;-75
2022/01/14 12:23:08;;;;;;;9.02;4.18;;;;;;;7.11;78.01;102946.75;4964256;28;20054;-77
2022/01/14 12:25:40;;;;;;;12.63;5.38;;;;;;;7.15;77.84;102947.84;4984436;28;20900;-77
2022/01/14 12:28:21;;;;;;;8.40;3.35;;;;;;;7.19;77.86;102932.47;4984049;28;20034;-77
2022/01/14 12:31:02;;;;;;;11.20;5.57;;;;;;;7.19;77.56;102938.81;4984653;28;20101;-77
2022/01/14 12:33:48;;;;;;;17.07;7.40;;;;;;;7.20;77.50;102934.94;4959522;28;20059;-78
2022/01/14 12:36:17;;;;;;;12.93;6.63;;;;;;;7.22;77.91;102926.41;4967068;28;20041;-77
2022/01/14 12:38:45;;;;;;;17.08;7.70;;;;;;;7.24;78.00;102913.19;4984181;28;20057;-77
2022/01/14 12:41:18;;;;;;;16.75;7.40;;;;;;;7.24;77.67;102918.72;4985448;28;20046;-77
2022/01/14 12:43:47;;;;;;;17.35;8.80;;;;;;;7.24;77.64;102919.53;4988600;28;20050;-77
2022/01/14 12:46:52;;;;;;;16.65;7.15;;;;;;;7.25;77.22;102906.59;4969561;28;20042;-77
2022/01/14 12:49:24;;;;;;;11.35;7.45;;;;;;;7.21;77.31;102898.03;4986922;28;20046;-77
2022/01/14 12:52:14;;;;;;;19.27;8.37;;;;;;;7.18;76.99;102909.59;4986611;28;20038;-76
2022/01/14 12:54:48;;;;;;;22.85;7.20;;;;;;;7.15;77.26;102893.59;4988454;28;20085;-77
2022/01/14 12:57:17;;;;;;;18.08;7.63;;;;;;;7.14;77.16;102891.13;4987890;28;20046;-77
2022/01/14 12:59:46;;;;;;;16.90;7.63;;;;;;;7.14;77.03;102885.63;4968831;28;20062;-77
2022/01/14 13:02:31;;;;;;;16.52;6.88;;;;;;;7.13;76.86;102886.72;4987458;28;20061;-76
2022/01/14 13:05:24;;;;;;;17.70;7.03;;;;;;;7.12;76.84;102883.13;4986275;28;20073;-76
2022/01/14 13:07:50;;;;;;;10.95;7.10;;;;;;;7.15;76.98;102884.50;4987730;28;20050;-76
2022/01/14 13:10:18;;;;;;;17.38;8.43;;;;;;;7.13;77.08;102883.94;4987631;28;20046;-77
2022/01/14 13:12:46;;;;;;;23.52;9.65;;;;;;;7.10;76.88;102881.72;4985976;28;20042;-77
2022/01/14 13:15:22;;;;;;;21.30;9.90;;;;;;;7.06;76.82;102873.19;4988342;28;20085;-77
2022/01/14 13:17:57;;;;;;;24.38;10.45;;;;;;;7.05;76.87;102867.94;4987126;28;20598;-77
2022/01/14 13:20:26;;;;;;;26.77;11.18;;;;;;;7.04;76.91;102864.34;4987936;28;20124;-77
2022/01/14 13:22:54;;;;;;;18.08;10.80;;;;;;;7.05;76.94;102865.19;4954192;28;20057;-77
2022/01/14 13:25:23;;;;;;;17.05;9.50;;;;;;;7.07;77.33;102852.00;4986757;28;20042;-77
2022/01/14 13:27:55;;;;;;;18.77;9.13;;;;;;;7.07;77.01;102846.50;4984978;28;20486;-77
2022/01/14 13:30:28;;;;;;;19.20;9.10;;;;;;;7.08;77.11;102839.88;4984741;28;20413;-77
2022/01/14 13:33:01;;;;;;;16.73;8.98;;;;;;;7.12;76.96;102843.75;5001119;28;20050;-77
2022/01/14 13:35:36;;;;;;;16.85;9.23;;;;;;;7.15;77.09;102841.25;5006770;28;20073;-77
2022/01/14 13:38:08;;;;;;;19.88;8.63;;;;;;;7.16;76.85;102833.84;5006969;28;20493;-77
2022/01/14 13:40:55;;;;;;;20.83;11.30;;;;;;;7.16;76.90;102831.06;5006303;28;20052;-77
2022/01/14 13:43:36;;;;;;;20.27;9.40;;;;;;;7.20;76.97;102827.50;5006341;28;20045;-77
2022/01/14 13:46:11;;;;;;;19.92;8.80;;;;;;;7.25;76.89;102832.22;4988387;28;20046;-76
2022/01/14 13:48:40;;;;;;;16.08;9.13;;;;;;;7.28;77.01;102820.66;5006867;28;20422;-77
2022/01/14 13:51:11;;;;;;;15.15;9.00;;;;;;;7.32;77.17;102817.06;5006162;28;20038;-76
2022/01/14 13:53:43;;;;;;;23.42;10.38;;;;;;;7.39;77.00;102822.31;5006451;28;20057;-76
2022/01/14 13:56:14;;;;;;;30.23;9.98;;;;;;;7.42;77.11;102823.69;4990290;28;20056;-76
2022/01/14 13:58:51;;;;;;;18.38;9.75;;;;;;;7.48;76.76;102819.84;5003351;28;20038;-77
2022/01/14 14:01:18;;;;;;;21.13;10.00;;;;;;;7.52;76.90;102809.94;5003734;28;20129;-77
2022/01/14 14:04:00;;;;;;;13.85;7.53;;;;;;;7.57;76.75;102801.66;5005105;28;20061;-76
2022/01/14 14:06:38;;;;;;;15.02;7.68;;;;;;;7.59;76.86;102794.78;4988044;28;20519;-75
2022/01/14 14:09:24;;;;;;;19.85;7.65;;;;;;;7.59;76.69;102786.50;4986731;28;20046;-76
2022/01/14 14:17:15;;;;;;;13.13;7.35;;;;;;;7.54;76.32;102775.50;5007069;28;20038;-76
2022/01/14 14:19:55;;;;;;;12.38;7.95;;;;;;;7.51;76.21;102770.53;5006790;28;20050;-76
2022/01/14 14:22:42;;;;;;;21.60;8.70;;;;;;;7.50;75.86;102760.59;5005896;28;20049;-76
2022/01/14 14:25:14;;;;;;;18.80;9.45;;;;;;;7.49;76.13;102758.94;5005998;28;20108;-77
2022/01/14 14:27:53;;;;;;;16.10;7.45;;;;;;;7.48;76.42;102746.25;5004859;28;20050;-77
2022/01/14 14:30:20;;;;;;;11.60;6.47;;;;;;;7.45;76.11;102746.81;5003460;28;20504;-79
2022/01/14 14:32:47;;;;;;;15.35;6.35;;;;;;;7.44;75.93;102741.59;4989397;28;20390;-76
2022/01/14 14:35:16;;;;;;;17.40;7.30;;;;;;;7.40;75.82;102738.53;5004267;28;20046;-76
2022/01/14 14:37:55;;;;;;;19.88;7.57;;;;;;;7.30;75.56;102728.34;5006354;28;20056;-76
2022/01/14 14:40:27;;;;;;;15.52;8.30;;;;;;;7.19;75.67;102745.16;5006326;28;20038;-76
2022/01/14 14:42:55;;;;;;;19.55;7.07;;;;;;;7.10;75.86;102730.25;4987395;28;20045;-76
2022/01/14 14:45:22;;;;;;;15.73;7.18;;;;;;;7.01;75.84;102732.75;5007959;28;20037;-76
2022/01/14 14:47:49;;;;;;;16.52;7.80;;;;;;;6.94;75.74;102734.06;5008271;28;20058;-76
2022/01/14 14:50:19;;;;;;;20.88;6.97;;;;;;;6.87;75.85;102725.25;4989048;28;20588;-77
2022/01/14 14:52:46;;;;;;;17.98;7.00;;;;;;;6.79;75.96;102725.78;4988830;28;20034;-76
2022/01/14 14:55:16;;;;;;;19.33;7.10;;;;;;;6.74;76.02;102724.69;5005658;28;20628;-76
2022/01/14 14:57:43;;;;;;;21.02;7.57;;;;;;;6.71;76.14;102710.63;5004256;28;20045;-76
2022/01/14 15:00:11;;;;;;;14.02;7.82;;;;;;;6.68;76.52;102723.03;5003833;28;20037;-77
2022/01/14 15:02:39;;;;;;;13.32;7.88;;;;;;;6.61;76.42;102710.63;5002951;28;20042;-76
2022/01/14 15:05:06;;;;;;;12.40;7.72;;;;;;;6.58;76.79;102709.22;5005652;28;20046;-76
2022/01/14 15:07:33;;;;;;;26.10;8.27;;;;;;;6.55;76.66;102706.19;5004289;28;20046;-76
2022/01/14 15:09:59;;;;;;;18.23;8.20;;;;;;;6.53;77.29;102702.88;5005485;28;20041;-76
2022/01/14 15:12:26;;;;;;;16.65;7.97;;;;;;;6.56;76.98;102697.69;5002994;28;20046;-76
2022/01/14 15:14:55;;;;;;;21.67;8.57;;;;;;;6.54;77.01;102699.84;4985965;28;20417;-76
2022/01/14 15:19:51;;;;;;;15.27;8.35;;;;;;;6.50;77.34;102693.25;5004955;28;20054;-76
2022/01/14 15:22:20;;;;;;;19.65;8.02;;;;;;;6.48;77.50;102684.44;5003403;28;20048;-77
2022/01/14 15:24:47;;;;;;;17.92;8.55;;;;;;;6.45;77.34;102676.72;5004656;28;20048;-76
2022/01/14 15:27:14;;;;;;;15.63;7.88;;;;;;;6.45;77.61;102667.63;4971883;28;20045;-76
2022/01/14 15:29:42;;;;;;;17.13;8.82;;;;;;;6.42;77.85;102670.94;4960396;28;20064;-76
2022/01/14 15:32:09;;;;;;;21.15;8.80;;;;;;;6.41;77.74;102672.00;5005241;28;20549;-77
2022/01/14 15:34:36;;;;;;;23.20;9.43;;;;;;;6.37;77.76;102669.00;4984816;28;20061;-77
2022/01/14 15:37:04;;;;;;;19.98;10.85;;;;;;;6.34;77.94;102665.94;5003021;28;20038;-76
2022/01/14 15:39:31;;;;;;;24.38;11.82;;;;;;;6.32;78.00;102663.47;4988605;28;20037;-76
2022/01/14 15:41:58;;;;;;;19.90;11.27;;;;;;;6.34;78.10;102676.94;5008936;28;20042;-76
2022/01/14 15:44:25;;;;;;;24.38;11.80;;;;;;;6.34;77.95;102671.44;5007338;28;20053;-76
2022/01/14 15:46:51;;;;;;;30.75;12.85;;;;;;;6.34;78.13;102668.69;5005973;28;20583;-76
2022/01/14 15:49:37;;;;;;;22.02;13.15;;;;;;;6.32;78.00;102671.72;4989114;28;20053;-77
2022/01/14 15:52:05;;;;;;;18.77;11.38;;;;;;;6.32;78.45;102663.47;4988639;28;20402;-77
2022/01/14 15:54:33;;;;;;;23.13;11.50;;;;;;;6.32;78.27;102657.16;4987073;28;20049;-76
2022/01/14 15:57:00;;;;;;;24.10;10.95;;;;;;;6.30;78.37;102646.41;5003460;28;20100;-76
2022/01/14 15:59:28;;;;;;;24.60;10.60;;;;;;;6.29;78.66;102642.00;5002114;28;20049;-76
2022/01/14 16:01:55;;;;;;;18.83;9.95;;;;;;;6.28;79.14;102640.34;5002062;28;20076;-76
2022/01/14 16:04:22;;;;;;;22.63;10.25;;;;;;;6.25;78.68;102631.81;5003150;28;20046;-76
2022/01/14 16:06:49;;;;;;;17.80;9.00;;;;;;;6.21;79.04;102641.69;4985462;28;20049;-76
2022/01/14 16:09:16;;;;;;;24.27;12.80;;;;;;;6.19;78.90;102641.97;4983504;28;20498;-76
2022/01/14 16:11:45;;;;;;;25.50;11.18;;;;;;;6.18;78.83;102644.97;5004384;28;20045;-76
2022/01/14 16:14:22;;;;;;;20.98;10.80;;;;;;;6.10;79.04;102633.41;4985648;28;20037;-76
2022/01/14 16:16:50;;;;;;;19.70;10.32;;;;;;;6.05;79.69;102633.41;4984488;28;20045;-76
2022/01/14 16:19:18;;;;;;;18.38;11.27;;;;;;;6.03;79.58;102632.84;5003311;28;20488;-75
2022/01/14 16:21:45;;;;;;;24.52;10.90;;;;;;;6.04;79.70;102630.91;5001353;28;20414;-77
2022/01/14 16:24:12;;;;;;;22.08;10.90;;;;;;;6.04;79.72;102631.75;5005506;28;20046;-77
2022/01/14 16:26:40;;;;;;;23.10;11.38;;;;;;;6.01;79.88;102623.22;5003584;28;20037;-77
2022/01/14 16:29:06;;;;;;;30.23;11.13;;;;;;;5.99;79.90;102619.88;5006421;28;20041;-77
2022/01/14 16:31:34;;;;;;;20.30;10.48;;;;;;;5.95;80.08;102619.63;4988602;28;20062;-78
2022/01/14 16:34:01;;;;;;;22.20;10.48;;;;;;;5.91;80.26;102629.47;5000059;28;20068;-78
2022/01/14 16:36:34;;;;;;;18.73;9.70;;;;;;;5.89;80.50;102625.34;5005142;28;20046;-77
2022/01/14 16:39:04;;;;;;;24.02;11.27;;;;;;;5.87;80.39;102628.38;5003902;28;20146;-78
2022/01/14 16:41:30;;;;;;;19.70;10.25;;;;;;;5.89;80.29;102630.84;5003969;28;20464;-77
2022/01/14 16:43:59;;;;;;;21.25;12.02;;;;;;;5.88;80.39;102626.44;5002702;28;20049;-78
2022/01/14 16:46:27;;;;;;;22.58;9.82;;;;;;;5.88;80.61;102623.69;5002733;28;20153;-77
2022/01/14 16:48:54;;;;;;;22.63;11.75;;;;;;;5.87;80.61;102616.56;5003264;28;20050;-78
2022/01/14 16:51:20;;;;;;;20.77;11.68;;;;;;;5.88;80.68;102612.69;4984335;28;20050;-78
2022/01/14 16:54:36;;;;;;;29.63;14.50;;;;;;;5.86;80.95;102617.63;5000881;28;20050;-78
2022/01/14 16:57:45;;;;;;;65.45;35.78;;;;;;;5.84;80.78;102614.31;4997049;28;20045;-78
2022/01/14 17:00:25;;;;;;;28.88;13.52;;;;;;;5.83;81.09;102604.38;4985965;28;20610;-78
2022/01/14 17:03:22;;;;;;;26.80;13.48;;;;;;;5.81;81.42;102604.69;5004391;28;20057;-77
2022/01/14 17:05:55;;;;;;;39.17;18.50;;;;;;;5.82;81.08;102603.59;4990261;28;20050;-77
2022/01/14 17:08:54;;;;;;;47.80;22.80;;;;;;;5.85;81.32;102607.75;4992989;28;20053;-78
2022/01/14 17:11:37;;;;;;;42.65;19.20;;;;;;;5.87;81.64;102605.56;5008277;28;20037;-78
2022/01/14 17:14:21;;;;;;;44.03;23.42;;;;;;;5.88;81.67;102607.19;4989219;28;20135;-77
2022/01/14 17:17:16;;;;;;;39.63;23.90;;;;;;;5.90;81.75;102605.03;4988317;28;20057;-77